createdAt,value
2018-08-04T00:00:13.067Z,58.42
2018-08-04T00:02:39.064Z,58.41
2018-08-04T00:05:05.114Z,58.39
2018-08-04T00:07:31.112Z,58.40
2018-08-04T00:09:57.121Z,58.38
2018-08-04T00:12:23.135Z,58.42
2018-08-04T00:14:49.148Z,58.40
2018-08-04T00:17:15.153Z,58.43
2018-08-04T00:19:41.162Z,58.41
2018-08-04T00:22:07.174Z,58.40
2018-08-04T00:24:33.186Z,58.42
2018-08-04T00:26:59.204Z,58.42
2018-08-04T00:29:25.218Z,58.42
2018-08-04T00:31:51.223Z,58.43
2018-08-04T00:34:17.239Z,58.44
2018-08-04T00:36:43.245Z,58.41
2018-08-04T00:39:09.244Z,58.43
2018-08-04T00:41:35.294Z,58.43
2018-08-04T00:44:01.302Z,58.44
2018-08-04T00:46:27.306Z,58.42
2018-08-04T00:48:53.331Z,58.43
2018-08-04T00:51:19.333Z,58.43
2018-08-04T00:53:45.345Z,58.43
2018-08-04T00:56:11.354Z,58.45
2018-08-04T00:58:37.365Z,58.46
2018-08-04T01:01:03.370Z,58.46
2018-08-04T01:03:29.382Z,58.45
2018-08-04T01:05:55.391Z,58.46
2018-08-04T01:08:21.402Z,58.48
2018-08-04T01:10:47.410Z,58.48
2018-08-04T01:13:13.423Z,58.48
2018-08-04T01:15:39.437Z,58.49
2018-08-04T01:18:05.440Z,58.47
2018-08-04T01:20:31.441Z,58.48
2018-08-04T01:22:57.469Z,58.49
2018-08-04T01:25:23.464Z,58.50
2018-08-04T01:27:49.471Z,58.50
2018-08-04T01:30:15.518Z,58.47
2018-08-04T01:32:41.521Z,58.51
2018-08-04T01:35:07.528Z,58.51
2018-08-04T01:37:33.533Z,58.51
2018-08-04T01:39:59.583Z,58.52
2018-08-04T01:42:25.593Z,58.51
2018-08-04T01:44:51.592Z,58.51
2018-08-04T01:47:17.606Z,58.50
2018-08-04T01:49:43.613Z,58.49
2018-08-04T01:52:09.618Z,58.49
2018-08-04T01:54:35.628Z,58.49
2018-08-04T01:57:01.643Z,58.48
2018-08-04T01:59:27.711Z,58.50
2018-08-04T02:01:53.675Z,58.47
2018-08-04T02:04:19.684Z,58.48
2018-08-04T02:06:45.700Z,58.47
2018-08-04T02:09:11.708Z,58.47
2018-08-04T02:11:37.721Z,58.42
2018-08-04T02:14:03.728Z,58.35
2018-08-04T02:16:29.729Z,58.35
2018-08-04T02:18:55.743Z,58.34
2018-08-04T02:21:21.752Z,58.36
2018-08-04T02:23:47.752Z,58.46
2018-08-04T02:26:13.761Z,58.50
2018-08-04T02:28:39.771Z,58.53
2018-08-04T02:31:05.773Z,58.46
2018-08-04T02:33:31.781Z,58.40
2018-08-04T02:35:57.789Z,58.33
2018-08-04T02:38:23.793Z,58.21
2018-08-04T02:40:49.809Z,58.23
2018-08-04T02:43:15.817Z,58.40
2018-08-04T02:45:41.832Z,58.48
2018-08-04T02:48:07.840Z,58.45
2018-08-04T02:50:33.851Z,58.46
2018-08-04T02:52:59.858Z,58.43
2018-08-04T02:55:25.863Z,58.30
2018-08-04T02:57:51.876Z,58.29
2018-08-04T03:00:17.926Z,58.27
2018-08-04T03:02:43.925Z,58.24
2018-08-04T03:05:09.936Z,58.24
2018-08-04T03:07:35.962Z,58.26
2018-08-04T03:10:01.962Z,58.18
2018-08-04T03:12:27.971Z,58.24
2018-08-04T03:14:54.026Z,58.24
2018-08-04T03:17:20.018Z,58.24
2018-08-04T03:19:48.654Z,58.31
2018-08-04T03:22:14.676Z,58.32
2018-08-04T03:24:40.700Z,58.34
2018-08-04T03:27:06.715Z,58.35
2018-08-04T03:29:32.733Z,58.34
2018-08-04T03:31:58.753Z,58.32
2018-08-04T03:34:24.767Z,58.38
2018-08-04T03:36:50.784Z,58.33
2018-08-04T03:39:16.789Z,58.15
2018-08-04T03:41:42.797Z,58.14
2018-08-04T03:44:08.800Z,58.10
2018-08-04T03:46:34.814Z,58.03
2018-08-04T03:49:00.818Z,58.00
2018-08-04T03:51:26.840Z,57.97
2018-08-04T03:53:52.841Z,57.95
2018-08-04T03:56:18.853Z,57.93
2018-08-04T03:58:44.861Z,57.96
2018-08-04T04:01:10.865Z,57.97
2018-08-04T04:03:36.876Z,57.98
2018-08-04T04:06:02.877Z,57.97
2018-08-04T04:08:28.899Z,58.06
2018-08-04T04:10:54.898Z,58.10
2018-08-04T04:13:20.913Z,58.11
2018-08-04T04:15:46.962Z,58.05
2018-08-04T04:18:12.977Z,57.96
2018-08-04T04:20:39.008Z,58.01
2018-08-04T04:23:05.050Z,58.09
2018-08-04T04:25:31.063Z,58.15
2018-08-04T04:27:57.069Z,58.14
2018-08-04T04:30:23.076Z,58.08
2018-08-04T04:32:49.080Z,58.01
2018-08-04T04:35:15.091Z,57.98
2018-08-04T04:37:41.103Z,57.88
2018-08-04T04:40:07.130Z,57.86
2018-08-04T04:42:33.132Z,57.89
2018-08-04T04:44:59.176Z,57.84
2018-08-04T04:47:25.187Z,57.83
2018-08-04T04:49:51.203Z,57.84
2018-08-04T04:52:17.210Z,57.80
2018-08-04T04:54:43.212Z,57.86
2018-08-04T04:57:09.225Z,57.88
2018-08-04T04:59:35.228Z,58.04
2018-08-04T05:02:01.308Z,58.05
2018-08-04T05:04:27.245Z,58.14
2018-08-04T05:06:53.260Z,58.05
2018-08-04T05:09:19.266Z,57.98
2018-08-04T05:11:45.274Z,57.91
2018-08-04T05:14:11.286Z,57.97
2018-08-04T05:16:37.293Z,57.92
2018-08-04T05:19:03.297Z,57.81
2018-08-04T05:21:29.339Z,57.98
2018-08-04T05:23:55.322Z,57.97
2018-08-04T05:26:21.339Z,57.94
2018-08-04T05:28:47.355Z,57.68
2018-08-04T05:31:13.372Z,58.11
2018-08-04T05:33:39.383Z,58.10
2018-08-04T05:36:05.388Z,58.11
2018-08-04T05:38:31.401Z,58.08
2018-08-04T05:40:57.423Z,58.11
2018-08-04T05:43:23.504Z,57.85
2018-08-04T05:45:49.449Z,58.08
2018-08-04T05:48:15.513Z,58.06
2018-08-04T05:50:41.614Z,58.08
2018-08-04T05:53:07.623Z,57.92
2018-08-04T05:55:33.634Z,56.86
2018-08-04T05:57:59.693Z,57.89
2018-08-04T06:00:25.684Z,57.50
2018-08-04T06:02:51.662Z,57.75
2018-08-04T06:05:17.707Z,57.58
2018-08-04T06:07:43.692Z,57.94
2018-08-04T06:10:09.709Z,57.89
2018-08-04T06:12:35.755Z,57.86
2018-08-04T06:15:02.410Z,57.96
2018-08-04T06:17:28.472Z,57.97
2018-08-04T06:19:54.544Z,58.01
2018-08-04T06:22:20.558Z,57.98
2018-08-04T06:24:46.561Z,58.05
2018-08-04T06:27:12.579Z,57.99
2018-08-04T06:29:38.589Z,57.97
2018-08-04T06:32:04.604Z,57.77
2018-08-04T06:34:30.653Z,57.97
2018-08-04T06:36:56.658Z,57.91
2018-08-04T06:39:22.670Z,57.79
2018-08-04T06:41:48.691Z,57.87
2018-08-04T06:44:14.703Z,58.06
2018-08-04T06:46:40.714Z,58.16
2018-08-04T06:49:06.725Z,58.22
2018-08-04T06:51:32.766Z,58.34
2018-08-04T06:53:58.770Z,58.37
2018-08-04T06:56:24.782Z,57.34
2018-08-04T06:58:50.812Z,57.43
2018-08-04T07:01:16.822Z,57.61
2018-08-04T07:03:42.941Z,57.58
2018-08-04T07:06:08.984Z,57.88
2018-08-04T07:08:34.991Z,57.87
2018-08-04T07:11:01.033Z,57.89
2018-08-04T07:13:27.046Z,57.76
2018-08-04T07:15:53.057Z,57.44
2018-08-04T07:18:19.056Z,57.60
2018-08-04T07:20:45.119Z,57.44
2018-08-04T07:23:11.239Z,56.92
2018-08-04T07:25:37.300Z,57.46
2018-08-04T07:28:03.313Z,57.52
2018-08-04T07:30:29.322Z,57.12
2018-08-04T07:32:55.335Z,57.16
2018-08-04T07:35:21.350Z,57.00
2018-08-04T07:37:47.353Z,57.50
2018-08-04T07:40:13.365Z,57.54
2018-08-04T07:42:39.382Z,57.56
2018-08-04T07:45:05.390Z,57.43
2018-08-04T07:47:31.441Z,57.45
2018-08-04T07:49:57.431Z,57.39
2018-08-04T07:52:23.435Z,57.64
2018-08-04T07:54:49.436Z,57.55
2018-08-04T07:57:15.442Z,57.36
2018-08-04T07:59:41.456Z,57.24
2018-08-04T08:02:07.472Z,57.43
2018-08-04T08:04:33.489Z,57.26
2018-08-04T08:06:59.497Z,57.18
2018-08-04T08:09:25.501Z,57.22
2018-08-04T08:11:51.509Z,57.20
2018-08-04T08:14:17.519Z,57.32
2018-08-04T08:16:43.536Z,57.38
2018-08-04T08:19:09.546Z,57.07
2018-08-04T08:21:35.559Z,56.23
2018-08-04T08:24:01.613Z,56.85
2018-08-04T08:26:27.612Z,56.64
2018-08-04T08:28:53.624Z,56.42
2018-08-04T08:31:19.707Z,56.51
2018-08-04T08:33:45.644Z,56.42
2018-08-04T08:36:11.649Z,56.32
2018-08-04T08:38:37.655Z,56.39
2018-08-04T08:41:03.691Z,56.64
2018-08-04T08:43:29.696Z,56.58
2018-08-04T08:45:55.709Z,56.05
2018-08-04T08:48:21.714Z,55.93
2018-08-04T08:50:47.723Z,56.22
2018-08-04T08:53:13.792Z,55.88
2018-08-04T08:55:39.733Z,55.84
2018-08-04T08:58:05.746Z,56.07
2018-08-04T09:00:31.761Z,55.95
2018-08-04T09:02:57.770Z,56.22
2018-08-04T09:05:23.820Z,56.34
2018-08-04T09:07:49.834Z,56.07
2018-08-04T09:10:15.838Z,56.10
2018-08-04T09:12:41.863Z,56.18
2018-08-04T09:15:07.877Z,56.57
2018-08-04T09:17:33.888Z,56.50
2018-08-04T09:19:59.898Z,56.60
2018-08-04T09:22:25.910Z,56.65
2018-08-04T09:24:51.916Z,56.76
2018-08-04T09:27:17.926Z,56.72
2018-08-04T09:29:43.938Z,56.76
2018-08-04T09:32:09.949Z,56.65
2018-08-04T09:34:35.961Z,56.42
2018-08-04T09:37:01.972Z,56.11
2018-08-04T09:39:27.982Z,56.23
2018-08-04T09:41:53.984Z,55.68
2018-08-04T09:44:19.988Z,55.73
2018-08-04T09:46:46.000Z,55.40
2018-08-04T09:49:12.007Z,55.66
2018-08-04T09:51:38.029Z,55.52
2018-08-04T09:54:04.047Z,55.76
2018-08-04T09:56:30.057Z,55.30
2018-08-04T09:58:56.066Z,55.04
2018-08-04T10:01:22.114Z,54.26
2018-08-04T10:03:48.099Z,54.22
2018-08-04T10:06:14.113Z,53.56
2018-08-04T10:08:40.127Z,53.80
2018-08-04T10:11:06.186Z,53.53
2018-08-04T10:13:32.174Z,53.96
2018-08-04T10:15:58.179Z,53.56
2018-08-04T10:18:24.191Z,53.64
2018-08-04T10:20:50.206Z,54.09
2018-08-04T10:23:16.208Z,54.02
2018-08-04T10:25:42.229Z,54.12
2018-08-04T10:28:08.297Z,54.16
2018-08-04T10:30:34.309Z,54.11
2018-08-04T10:33:00.320Z,54.22
2018-08-04T10:35:26.332Z,54.69
2018-08-04T10:37:52.343Z,54.33
2018-08-04T10:40:18.367Z,54.36
2018-08-04T10:42:44.406Z,54.58
2018-08-04T10:45:10.425Z,55.25
2018-08-04T10:47:36.459Z,54.68
2018-08-04T10:50:02.432Z,54.61
2018-08-04T10:52:28.439Z,54.61
2018-08-04T10:54:54.455Z,54.44
2018-08-04T10:57:20.500Z,54.55
2018-08-04T10:59:46.502Z,54.41
2018-08-04T11:02:12.537Z,54.48
2018-08-04T11:04:38.579Z,54.40
2018-08-04T11:07:04.586Z,53.60
2018-08-04T11:09:30.605Z,53.02
2018-08-04T11:11:56.622Z,52.43
2018-08-04T11:14:22.637Z,52.50
2018-08-04T11:16:48.644Z,53.34
2018-08-04T11:19:14.655Z,53.63
2018-08-04T11:21:40.656Z,53.81
2018-08-04T11:24:06.725Z,53.97
2018-08-04T11:26:32.669Z,54.75
2018-08-04T11:28:58.678Z,54.33
2018-08-04T11:31:24.697Z,54.49
2018-08-04T11:33:50.698Z,53.62
2018-08-04T11:36:16.704Z,53.48
2018-08-04T11:38:42.722Z,53.57
2018-08-04T11:41:08.737Z,53.51
2018-08-04T11:43:34.837Z,53.42
2018-08-04T11:46:00.811Z,53.44
2018-08-04T11:48:26.820Z,53.39
2018-08-04T11:50:52.847Z,53.61
2018-08-04T11:53:18.845Z,53.60
2018-08-04T11:55:44.848Z,53.63
2018-08-04T11:58:10.862Z,54.23
2018-08-04T12:00:36.871Z,53.72
2018-08-04T12:03:02.878Z,53.96
2018-08-04T12:05:28.935Z,53.68
2018-08-04T12:07:54.897Z,53.83
2018-08-04T12:10:20.904Z,53.84
2018-08-04T12:12:46.969Z,53.91
2018-08-04T12:15:12.978Z,54.65
2018-08-04T12:17:38.990Z,53.97
2018-08-04T12:20:05.059Z,54.34
2018-08-04T12:22:31.027Z,53.92
2018-08-04T12:24:57.030Z,53.84
2018-08-04T12:27:23.036Z,54.04
2018-08-04T12:29:49.044Z,53.97
2018-08-04T12:32:15.054Z,54.77
2018-08-04T12:34:41.068Z,54.85
2018-08-04T12:37:07.083Z,54.20
2018-08-04T12:39:33.093Z,54.05
2018-08-04T12:41:59.112Z,54.16
2018-08-04T12:44:25.122Z,54.21
2018-08-04T12:46:51.130Z,54.46
2018-08-04T12:49:17.205Z,54.31
2018-08-04T12:51:43.217Z,54.16
2018-08-04T12:54:09.270Z,54.31
2018-08-04T12:56:35.292Z,54.45
2018-08-04T12:59:01.316Z,54.46
2018-08-04T13:01:27.324Z,54.37
2018-08-04T13:03:53.368Z,54.49
2018-08-04T13:06:19.373Z,54.91
2018-08-04T13:08:45.420Z,54.53
2018-08-04T13:11:11.420Z,54.58
2018-08-04T13:13:37.430Z,54.66
2018-08-04T13:16:03.477Z,54.69
2018-08-04T13:18:29.485Z,54.73
2018-08-04T13:20:55.490Z,54.80
2018-08-04T13:23:21.508Z,54.98
2018-08-04T13:25:47.517Z,55.34
2018-08-04T13:28:13.532Z,55.34
2018-08-04T13:30:39.540Z,55.25
2018-08-04T13:33:05.575Z,55.38
2018-08-04T13:35:31.562Z,55.54
2018-08-04T13:37:57.569Z,55.63
2018-08-04T13:40:23.576Z,55.74
2018-08-04T13:42:49.653Z,55.83
2018-08-04T13:45:15.634Z,54.66
2018-08-04T13:47:41.636Z,55.74
2018-08-04T13:50:07.689Z,55.70
2018-08-04T13:52:33.688Z,55.83
2018-08-04T13:54:59.705Z,55.37
2018-08-04T13:57:25.718Z,55.34
2018-08-04T13:59:51.849Z,55.29
2018-08-04T14:02:17.859Z,55.35
2018-08-04T14:04:43.992Z,55.44
2018-08-04T14:07:10.005Z,55.37
2018-08-04T14:09:36.024Z,55.39
2018-08-04T14:12:02.049Z,55.54
2018-08-04T14:14:28.052Z,55.51
2018-08-04T14:16:54.098Z,55.50
2018-08-04T14:19:20.105Z,55.36
2018-08-04T14:21:46.128Z,55.04
2018-08-04T14:24:12.132Z,55.36
2018-08-04T14:26:38.144Z,55.05
2018-08-04T14:29:04.146Z,54.94
2018-08-04T14:31:30.157Z,54.40
2018-08-04T14:33:56.176Z,54.04
2018-08-04T14:36:22.192Z,53.79
2018-08-04T14:38:48.202Z,53.88
2018-08-04T14:41:14.243Z,53.56
2018-08-04T14:43:40.263Z,53.67
2018-08-04T14:46:06.267Z,53.50
2018-08-04T14:48:32.285Z,53.04
2018-08-04T14:50:58.308Z,52.89
2018-08-04T14:53:24.315Z,52.65
2018-08-04T14:55:50.323Z,52.21
2018-08-04T14:58:16.344Z,52.58
2018-08-04T15:00:42.383Z,53.30
2018-08-04T15:03:08.401Z,53.63
2018-08-04T15:05:34.408Z,53.84
2018-08-04T15:08:00.533Z,53.31
2018-08-04T15:10:26.562Z,53.65
2018-08-04T15:12:52.588Z,52.96
2018-08-04T15:15:18.641Z,52.36
2018-08-04T15:17:44.648Z,53.17
2018-08-04T15:20:10.657Z,52.29
2018-08-04T15:22:37.103Z,53.31
2018-08-04T15:25:03.321Z,53.68
2018-08-04T15:27:29.430Z,52.74
2018-08-04T15:29:55.571Z,52.61
2018-08-04T15:32:21.581Z,52.41
2018-08-04T15:34:47.594Z,53.44
2018-08-04T15:37:13.850Z,52.62
2018-08-04T15:39:39.946Z,52.90
2018-08-04T15:42:05.954Z,52.79
2018-08-04T15:44:31.972Z,53.15
2018-08-04T15:46:58.016Z,53.24
2018-08-04T15:49:24.019Z,53.49
2018-08-04T15:51:50.038Z,53.31
2018-08-04T15:54:16.049Z,53.51
2018-08-04T15:56:42.107Z,52.62
2018-08-04T15:59:08.077Z,52.82
2018-08-04T16:01:34.085Z,53.21
2018-08-04T16:04:00.096Z,52.99
2018-08-04T16:06:26.102Z,53.00
2018-08-04T16:08:52.122Z,52.82
2018-08-04T16:11:18.133Z,52.56
2018-08-04T16:13:44.136Z,52.46
2018-08-04T16:16:10.148Z,52.63
2018-08-04T16:18:36.166Z,53.15
2018-08-04T16:21:02.179Z,52.66
2018-08-04T16:23:28.195Z,52.92
2018-08-04T16:25:54.212Z,52.67
2018-08-04T16:28:20.238Z,52.67
2018-08-04T16:30:46.255Z,53.45
2018-08-04T16:33:12.272Z,53.60
2018-08-04T16:35:38.291Z,54.00
2018-08-04T16:38:04.340Z,53.16
2018-08-04T16:40:30.317Z,52.97
2018-08-04T16:42:56.376Z,53.94
2018-08-04T16:45:22.352Z,53.54
2018-08-04T16:47:48.366Z,53.25
2018-08-04T16:50:14.372Z,52.84
2018-08-04T16:52:40.379Z,53.14
2018-08-04T16:55:06.390Z,53.11
2018-08-04T16:57:32.394Z,53.20
2018-08-04T16:59:58.408Z,52.98
2018-08-04T17:02:24.454Z,53.25
2018-08-04T17:04:50.433Z,53.69
2018-08-04T17:07:16.590Z,53.17
2018-08-04T17:09:42.605Z,52.21
2018-08-04T17:12:08.625Z,52.39
2018-08-04T17:14:34.633Z,52.27
2018-08-04T17:17:00.642Z,53.13
2018-08-04T17:19:26.659Z,52.81
2018-08-04T17:21:52.693Z,52.95
2018-08-04T17:24:18.676Z,52.81
2018-08-04T17:26:44.720Z,53.55
2018-08-04T17:29:10.726Z,53.58
2018-08-04T17:31:36.728Z,53.14
2018-08-04T17:34:02.737Z,53.60
2018-08-04T17:36:28.806Z,53.57
2018-08-04T17:38:54.808Z,53.42
2018-08-04T17:41:20.813Z,53.75
2018-08-04T17:43:46.827Z,53.81
2018-08-04T17:46:12.841Z,54.02
2018-08-04T17:48:38.853Z,53.94
2018-08-04T17:51:04.857Z,53.92
2018-08-04T17:53:30.865Z,54.27
2018-08-04T17:55:56.877Z,54.08
2018-08-04T17:58:22.880Z,54.11
2018-08-04T18:00:48.941Z,54.13
2018-08-04T18:03:14.945Z,53.78
2018-08-04T18:05:40.958Z,54.25
2018-08-04T18:08:06.969Z,54.22
2018-08-04T18:10:32.988Z,54.22
2018-08-04T18:12:59.004Z,54.26
2018-08-04T18:15:25.015Z,53.88
2018-08-04T18:17:51.030Z,53.75
2018-08-04T18:20:17.041Z,54.33
2018-08-04T18:22:43.056Z,53.42
2018-08-04T18:25:09.089Z,54.38
2018-08-04T18:27:35.094Z,54.52
2018-08-04T18:30:01.145Z,53.45
2018-08-04T18:32:27.191Z,53.79
2018-08-04T18:34:53.198Z,53.17
2018-08-04T18:37:19.253Z,53.79
2018-08-04T18:39:45.228Z,52.74
2018-08-04T18:42:11.242Z,53.89
2018-08-04T18:44:37.305Z,52.29
2018-08-04T18:47:03.274Z,52.36
2018-08-04T18:49:29.283Z,53.02
2018-08-04T18:51:55.318Z,53.08
2018-08-04T18:54:21.308Z,53.28
2018-08-04T18:56:47.314Z,53.00
2018-08-04T18:59:13.357Z,52.68
2018-08-04T19:01:39.371Z,52.99
2018-08-04T19:04:05.381Z,52.82
2018-08-04T19:06:31.393Z,52.95
2018-08-04T19:08:57.407Z,54.07
2018-08-04T19:11:23.408Z,53.68
2018-08-04T19:13:49.430Z,53.20
2018-08-04T19:16:15.560Z,53.23
2018-08-04T19:18:41.497Z,53.54
2018-08-04T19:21:07.509Z,53.68
2018-08-04T19:23:33.555Z,54.13
2018-08-04T19:25:59.556Z,54.17
2018-08-04T19:28:25.636Z,54.18
2018-08-04T19:30:51.598Z,53.82
2018-08-04T19:33:17.590Z,54.32
2018-08-04T19:35:43.602Z,54.10
2018-08-04T19:38:09.621Z,54.41
2018-08-04T19:40:35.629Z,54.46
2018-08-04T19:43:01.644Z,54.53
2018-08-04T19:45:27.722Z,54.65
2018-08-04T19:47:53.734Z,54.14
2018-08-04T19:50:19.739Z,54.17
2018-08-04T19:52:45.763Z,54.21
2018-08-04T19:55:11.770Z,54.25
2018-08-04T19:57:37.796Z,54.24
2018-08-04T20:00:03.801Z,54.42
2018-08-04T20:02:29.820Z,54.58
2018-08-04T20:04:55.829Z,54.77
2018-08-04T20:07:21.872Z,54.75
2018-08-04T20:09:47.888Z,54.85
2018-08-04T20:12:13.921Z,54.74
2018-08-04T20:14:39.954Z,54.91
2018-08-04T20:17:05.943Z,54.71
2018-08-04T20:19:32.996Z,54.75
2018-08-04T20:21:59.337Z,54.83
2018-08-04T20:24:25.367Z,54.85
2018-08-04T20:26:52.695Z,54.93
2018-08-04T20:29:19.370Z,55.17
2018-08-04T20:31:45.386Z,55.22
2018-08-04T20:34:11.401Z,55.26
2018-08-04T20:36:37.408Z,55.14
2018-08-04T20:39:03.476Z,55.24
2018-08-04T20:41:29.496Z,55.24
2018-08-04T20:43:55.513Z,55.30
2018-08-04T20:46:21.546Z,55.31
2018-08-04T20:48:47.585Z,55.25
2018-08-04T20:51:13.596Z,55.40
2018-08-04T20:53:39.648Z,55.40
2018-08-04T20:56:05.662Z,55.43
2018-08-04T20:58:31.677Z,55.59
2018-08-04T21:00:57.687Z,55.45
2018-08-04T21:03:23.708Z,55.51
2018-08-04T21:05:49.728Z,55.72
2018-08-04T21:08:15.736Z,55.79
2018-08-04T21:10:41.759Z,55.67
2018-08-04T21:13:07.758Z,55.83
2018-08-04T21:15:33.770Z,55.80
2018-08-04T21:17:59.785Z,55.67
2018-08-04T21:20:25.837Z,55.91
2018-08-04T21:22:51.836Z,55.98
2018-08-04T21:25:17.844Z,55.98
2018-08-04T21:27:43.851Z,56.04
2018-08-04T21:30:09.893Z,56.03
2018-08-04T21:32:35.899Z,56.08
2018-08-04T21:35:01.910Z,56.08
2018-08-04T21:37:27.916Z,56.14
2018-08-04T21:39:53.925Z,56.23
2018-08-04T21:42:19.933Z,56.24
2018-08-04T21:44:45.936Z,56.23
2018-08-04T21:47:11.946Z,56.24
2018-08-04T21:49:37.951Z,56.26
2018-08-04T21:52:03.965Z,56.32
2018-08-04T21:54:29.999Z,56.35
2018-08-04T21:56:56.029Z,56.33
2018-08-04T21:59:22.032Z,56.37
2018-08-04T22:01:48.155Z,56.33
2018-08-04T22:04:14.151Z,56.35
2018-08-04T22:06:40.162Z,56.39
2018-08-04T22:09:06.165Z,56.33
2018-08-04T22:11:32.172Z,56.39
2018-08-04T22:13:58.181Z,56.28
2018-08-04T22:16:24.184Z,56.31
2018-08-04T22:18:50.185Z,56.33
2018-08-04T22:21:16.198Z,56.17
2018-08-04T22:23:42.211Z,56.15
2018-08-04T22:26:08.220Z,56.30
2018-08-04T22:28:34.231Z,56.30
2018-08-04T22:31:00.228Z,56.32
2018-08-04T22:33:26.260Z,56.38
2018-08-04T22:35:52.252Z,56.36
2018-08-04T22:38:18.269Z,56.35
2018-08-04T22:40:44.274Z,56.43
2018-08-04T22:43:10.290Z,56.45
2018-08-04T22:45:36.301Z,56.41
2018-08-04T22:48:02.309Z,56.49
2018-08-04T22:50:28.319Z,56.37
2018-08-04T22:52:54.337Z,56.30
2018-08-04T22:55:20.356Z,56.39
2018-08-04T22:57:46.367Z,56.37
2018-08-04T23:00:12.387Z,56.33
2018-08-04T23:02:38.400Z,56.22
2018-08-04T23:05:04.406Z,56.27
2018-08-04T23:07:30.419Z,56.32
2018-08-04T23:09:56.433Z,56.34
2018-08-04T23:12:22.443Z,56.34
2018-08-04T23:14:48.452Z,56.37
2018-08-04T23:17:14.474Z,56.38
2018-08-04T23:19:40.492Z,56.37
2018-08-04T23:22:06.496Z,56.39
2018-08-04T23:24:32.509Z,56.38
2018-08-04T23:26:58.517Z,56.49
2018-08-04T23:29:24.530Z,56.48
2018-08-04T23:31:50.533Z,56.54
2018-08-04T23:34:16.540Z,56.53
2018-08-04T23:36:42.549Z,56.55
2018-08-04T23:39:08.563Z,56.59
2018-08-04T23:41:34.565Z,56.57
2018-08-04T23:44:00.572Z,56.54
2018-08-04T23:46:26.578Z,56.57
2018-08-04T23:48:52.592Z,56.58
2018-08-04T23:51:18.598Z,56.53
2018-08-04T23:53:44.605Z,56.53
2018-08-04T23:56:10.619Z,56.53
2018-08-04T23:58:36.623Z,56.55
